Weather observations for the past three days for
Pohnpei - NWS Office
Imperial (Metric)
Date Time (+11) Wind (mph) Vis. (mi.) Weather Sky Cond. Temperature (ºF) Relative Humidity Wind Chill (°F) Heat Index (°F) Pressure Precipitation (in)
Air Dwpt 6 hour altimeter (in) sea level (mb) 1 hr 3 hr 6 hr
Max. Min.
08 19:56 SE 6 5.00 Light Showers Rain BKN016TCU OVC120 78.8 77 94% 83 29.81 1009.6 0.11
08 18:54 SE 6 5.00 Light Showers Rain BKN017TCU OVC130 78.8 76.8 94% 83 29.81 1009.3
08 17:55 SE 5 5.00 Light Showers Rain BKN017TCU OVC130 79.3 76.8 92% 84 29.78 1008.4
08 16:52 E 5 8.00 Overcast BKN017TCU OVC130 80.2 76.5 82.4 79.7 88% 86 29.76 1007.8 0.06
08 15:56 SE 7 G 21 5.00 Light Showers Rain OVC017CB 79.7 77 92% 85 29.76 1007.8
08 14:53 E 3 5.00 Light Showers Rain BKN017CB OVC120 80.1 76.1 88% 85 29.76 1007.9
08 13:52 SE 6 5.00 Light Showers Rain BKN017CB OVC120 80.1 77.4 92% 86 29.77 1008.2 0.02
08 12:57 SE 6 10.00 Overcast BKN017CB OVC120 82.4 77 84% 91 29.79 1008.6
08 11:56 SE 3 10.00 Overcast BKN017CB OVC120 81.7 77.5 87% 90 29.79 1008.9
08 10:52 SE 1 5.00 Overcast BKN017CB OVC120 80.2 76.3 80.2 77 88% 86 29.81 1009.6 0.14
08 09:54 NE 3 5.00 Light Showers Rain BKN017CB OVC120 79 77 94% 83 29.81 1009.4
08 08:53 NE 5 3.00 Light Showers Rain OVC017CB 78.3 75.9 93% 81 29.83 1010.1
08 07:55 E 6 3.00 Light Showers Rain BKN017CB OVC130 77.9 76.3 95% 80 29.82 1009.9 0.12
08 06:54 E 5 10.00 Light Rain BKN017TCU OVC130 77 76.6 99% 78 29.79 1008.9
08 05:50 SE 6 12.00 Light Showers Rain BKN017TCU OVC130 78.8 76.3 92% 83 29.76 1007.8
08 04:53 Calm 12.00 Overcast BKN017TCU OVC130 78.8 76.3 80.6 77.9 92% 83 29.75 1007.3 0.31
08 03:50 E 8 5.00 Light Showers Rain BKN017TCU OVC130 77.9 76.3 95% 80 29.75 1007.3
08 02:55 SE 5 5.00 Light Showers Rain BKN017TCU OVC130 77.9 76.3 95% 80 29.75 1007.4
08 01:55 E 7 12.00 Overcast BKN017TCU OVC130 80.6 77.7 91% 88 29.75 1007.4 0.12
08 00:59 E 5 8.00 Light Showers Rain OVC018TCU 80.6 76.8 88% 87 29.77 1008.0
07 23:54 Calm 8.00 Light Showers Rain OVC018TCU 79 77.7 96% 83 29.79 1008.9
07 22:58 E 5 10.00 Overcast BKN018TCU OVC120 79 76.6 81.3 79 93% 83 29.8 1009.2 0.1
07 21:52 E 2 10.00 Mostly Cloudy SCT017TCU BKN120 80.6 75.7 85% 86 29.81 1009.3
07 20:53 E 3 10.00 Mostly Cloudy SCT017TCU BKN120 81.3 75.7 83% 88 29.81 1009.3
07 19:56 E 2 10.00 Overcast BKN017TCU OVC120 81 75.6 84% 87 29.79 1008.8 0.75
07 18:54 E 12 10.00 Light Showers Rain BKN017TCU OVC120 81.1 75.9 84% 88 29.79 1008.6
07 17:50 E 9 10.00 Overcast BKN017TCU OVC120 80.8 77.2 89% 88 29.74 1007.2
07 16:50 E 8 G 20 10.00 Light Showers Rain BKN017TCU OVC120 81.3 75.9 82 80.2 84% 88 29.72 1006.4 0.1
07 16:10 NE 9 8.00 Light Showers Rain OVC017TCU 81 76.3 86% 87 29.72 1006.4
07 14:51 E 13 G 40 8.00 Light Showers Rain OVC017TCU 80.2 76.5 88% 86 29.73 1006.7
07 13:51 E 13 G 28 10.00 Light Showers Rain OVC017TCU 80.6 75.2 84% 86 29.8 1009.0 0.07
07 12:59 E 7 10.00 Light Showers Rain BKN017TCU OVC120 81 75.9 85% 87 29.76 1007.7
07 11:55 N 9 10.00 Overcast SCT017 OVC120 82 77.5 86% 91 29.79 1008.6
07 10:50 E 9 9.00 Overcast SCT017 OVC120 80.6 76.1 80.6 77 86% 87 29.8 1009.2 0.14
07 09:50 NE 6 7.00 Light Rain SCT017TCU OVC120 78.8 77.2 95% 83 29.82 1009.9
07 08:55 SE 3 14.00 Light Rain BKN017TCU OVC120 79.2 77.4 94% 84 29.84 1010.3
07 07:52 SE 3 14.00 Light Rain BKN017TCU OVC120 77.9 76.6 96% 80 29.83 1010.2 0.1
07 06:55 SE 3 14.00 Light Rain BKN017TCU OVC120 77.9 76.6 96% 80 29.83 1010.0
07 05:55 SE 3 14.00 Light Rain BKN017TCU OVC120 77 74.3 91% 78 29.81 1009.3
07 04:55 SE 6 14.00 Light Rain BKN017TCU OVC120 77.4 74.3 78.6 76.8 90% 79 29.79 1008.6 0.5
07 03:55 SE 3 14.00 Light Rain BKN017TCU OVC120 76.8 75.7 96% 77 29.78 1008.4
07 02:55 SE 3 14.00 Light Rain BKN017TCU OVC120 77.2 76.3 97% 78 29.78 1008.5
07 01:55 SE 5 14.00 Light Rain BKN017TCU OVC120 77.4 76.1 96% 79 29.8 1009.2 0.34
07 00:55 SE 3 14.00 Light Rain BKN017TCU OVC120 78.4 76.1 93% 82 29.84 1010.4
06 23:50 SE 6 14.00 Light Rain BKN017TCU OVC120 78.6 76.1 92% 82 29.85 1010.9
06 22:52 SE 3 14.00 Light Rain BKN017TCU OVC120 77 75.7 79.2 77 96% 78 29.84 1010.3 0.71
06 21:50 SE 5 15.00 Overcast BKN018TCU OVC130 77.4 74.3 90% 79 29.84 1010.5
06 20:55 SE 6 14.00 Light Showers Rain BKN017TCU OVC120 79 76.6 93% 83 29.84 1010.4
06 19:52 SE 6 14.00 Light Showers Rain BKN017TCU OVC120 78.8 76.3 92% 83 29.83 1010.2 0.49
06 18:52 SE 6 14.00 Light Showers Rain BKN017TCU OVC120 77 76.5 98% 78 29.8 1009.1
06 17:55 SE 10 G 22 14.00 Showers Rain BKN017TCU BKN130 OVC300 77.4 76.5 97% 79 29.8 1009.0
06 16:50 SE 5 G 22 14.00 Light Showers Rain BKN017TCU BKN130 OVC300 79.2 76.5 90.7 79.2 91% 84 29.76 1007.7 0.14
06 15:52 NE 6 15.00 Overcast BKN017TCU BKN130 OVC300 86.4 76.5 72% 97 29.75 1007.4
06 14:53 E 5 15.00 Overcast SCT017TCU BKN130 OVC300 86.2 77 74% 97 29.76 1007.6
06 13:51 E 6 15.00 Light Showers Rain SCT017TCU BKN130 OVC300 82.4 77.9 86% 92 29.77 1008.2 0.02
06 12:57 E 8 15.00 Overcast SCT017TCU BKN130 OVC300 87.8 77.5 72% 101 29.78 1008.5
06 11:54 E 5 15.00 Overcast SCT017TCU BKN130 OVC300 90.7 75.4 61% 102 29.8 1009.1
06 10:53 E 6 15.00 Overcast SCT017TCU BKN130 OVC300 86.4 78.3 87.1 78.6 77% 99 29.81 1009.5 0.02
06 09:55 E 2 15.00 Overcast SCT017 BKN130 OVC300 87.1 77 72% 99 29.81 1009.6
06 08:55 NE 5 15.00 Overcast SCT017TCU BKN130 OVC300 84.2 78.3 82% 95 29.81 1009.6
06 06:50 E 5 15.00 Overcast BKN017TCU BKN130 OVC300 83.3 76.6 80% 92 29.79 1008.6
06 05:55 E 3 15.00 Overcast BKN017TCU BKN130 OVC300 79.2 77.2 94% 84 29.77 1008.1
06 04:50 E 5 15.00 Overcast BKN017TCU BKN130 OVC300 78.6 77.5 80.2 78.4 97% 82 29.77 1008.1
06 03:52 Calm 14.00 Overcast BKN017TCU BKN130 OVC300 78.4 77.9 98% 82 29.77 1008.2
06 01:53 Calm 14.00 Overcast BKN017TCU BKN130 OVC300 78.6 77.9 98% 82 29.79 1008.9
06 00:54 E 3 14.00 Overcast BKN017TCU BKN130 OVC300 78.8 77.7 97% 83 29.83 1010.0
05 23:53 E 3 12.00 Overcast BKN017TCU OVC120 78.8 77.5 96% 83 29.86 1011.0
05 22:54 E 9 12.00 Overcast BKN017CB OVC120 80.2 78.1 85.1 80.2 93% 87 29.87 1011.5 0.19
05 21:53 SE 8 G 23 12.00 Overcast BKN017CB OVC120 82.4 77.2 84% 91 29.87 1011.3
Date Time (+11) Wind (mph) Vis. (mi.) Weather Sky Cond. Air Dwpt Max. Min. Relative Humidity Wind Chill (°F) Heat Index (°F) altimeter (in) sea level (mb) 1 hr 3 hr 6 hr
6 hour
Temperature (ºF) Pressure Precipitation (in)